Time;durP1;ratioP1;P1;durP2;ratioP2;P2;SDS_P1;SDS_P2;PMS_P1;PMS_P2;Temp;Humidity;BMP_temperature;BMP_pressure;BME280_temperature;BME280_humidity;BME280_pressure;Samples;Min_cycle;Max_cycle;Signal;HPM_P1;HPM_P2
2022/01/27 00:02:32;;;;;;;128.80;55.03;;;3.30;99.90;;;;;;5031953;28;20026;-75
2022/01/27 00:05:19;;;;;;;121.70;53.17;;;3.20;99.90;;;;;;5031560;28;20036;-75
2022/01/27 00:12:59;;;;;;;110.87;51.50;;;3.00;99.90;;;;;;5031374;28;20022;-75
2022/01/27 00:15:31;;;;;;;112.60;49.10;;;3.00;99.90;;;;;;5031501;28;20083;-75
2022/01/27 00:18:01;;;;;;;107.15;48.30;;;3.00;99.90;;;;;;5031823;28;20056;-75
2022/01/27 00:20:27;;;;;;;103.00;46.17;;;3.10;99.90;;;;;;5013961;28;20492;-75
2022/01/27 00:22:53;;;;;;;97.67;45.60;;;3.10;99.90;;;;;;5031760;28;20076;-75
2022/01/27 00:25:19;;;;;;;100.33;46.73;;;3.20;99.90;;;;;;5013956;28;20463;-75
2022/01/27 00:27:44;;;;;;;100.80;45.70;;;3.20;99.90;;;;;;5014182;28;20044;-75
2022/01/27 00:30:11;;;;;;;90.30;44.30;;;3.20;99.90;;;;;;5013758;28;20036;-75
2022/01/27 00:32:37;;;;;;;95.67;44.53;;;3.20;99.90;;;;;;5031769;28;20061;-75
2022/01/27 00:35:04;;;;;;;96.63;46.50;;;3.10;99.90;;;;;;5031305;28;20053;-75
2022/01/27 00:37:30;;;;;;;102.83;46.70;;;3.10;99.90;;;;;;5031587;28;20036;-75
2022/01/27 00:39:56;;;;;;;95.73;44.60;;;3.10;99.90;;;;;;5031568;28;20292;-75
2022/01/27 00:42:24;;;;;;;95.27;45.70;;;3.10;99.90;;;;;;5031620;28;20049;-75
2022/01/27 00:44:50;;;;;;;103.03;47.90;;;3.00;99.90;;;;;;5031621;28;20100;-75
2022/01/27 00:47:16;;;;;;;104.37;47.60;;;3.10;99.90;;;;;;5013506;28;20049;-75
2022/01/27 00:49:41;;;;;;;100.60;49.33;;;3.10;99.90;;;;;;5031435;28;20112;-75
2022/01/27 00:52:11;;;;;;;104.37;46.67;;;3.00;99.90;;;;;;5031634;28;20503;-75
2022/01/27 00:54:37;;;;;;;97.50;46.13;;;3.10;99.90;;;;;;5013524;28;20037;-75
2022/01/27 00:57:31;;;;;;;91.77;43.97;;;3.10;99.90;;;;;;5031274;28;20030;-75
2022/01/27 01:00:01;;;;;;;103.17;47.23;;;3.10;99.90;;;;;;5031404;28;20014;-75
2022/01/27 01:02:42;;;;;;;97.37;44.33;;;3.10;99.90;;;;;;5031402;28;20049;-76
2022/01/27 01:07:38;;;;;;;91.77;45.07;;;3.20;99.90;;;;;;5031448;28;20026;-75
2022/01/27 01:15:37;;;;;;;85.47;41.80;;;3.20;99.90;;;;;;5031480;28;20079;-75
2022/01/27 01:31:43;;;;;;;87.50;40.67;;;3.10;99.90;;;;;;5035174;28;20411;-75
2022/01/27 01:34:16;;;;;;;86.17;41.63;;;3.10;99.90;;;;;;5034853;28;20552;-75
2022/01/27 01:37:07;;;;;;;83.27;41.33;;;3.10;99.90;;;;;;5016908;28;20124;-75
2022/01/27 01:39:35;;;;;;;82.47;39.60;;;3.00;99.90;;;;;;5030649;28;20033;-75
2022/01/27 01:42:05;;;;;;;89.45;41.80;;;3.00;99.90;;;;;;5034748;28;20078;-75
2022/01/27 01:44:30;;;;;;;84.90;40.77;;;3.00;99.90;;;;;;5034447;28;20021;-75
2022/01/27 01:46:57;;;;;;;83.90;41.00;;;3.00;99.90;;;;;;5034312;28;20542;-75
2022/01/27 01:49:26;;;;;;;81.87;40.03;;;3.00;99.90;;;;;;5016955;28;20033;-75
2022/01/27 01:51:54;;;;;;;92.43;40.83;;;3.00;99.90;;;;;;5034553;28;20021;-75
2022/01/27 01:54:20;;;;;;;88.43;39.83;;;3.00;99.90;;;;;;5034383;28;20546;-75
2022/01/27 01:56:46;;;;;;;83.77;38.77;;;3.00;99.90;;;;;;5034214;28;20117;-75
2022/01/27 01:59:14;;;;;;;83.60;39.90;;;2.90;99.90;;;;;;5034427;28;20032;-75
2022/01/27 02:01:40;;;;;;;79.57;38.33;;;3.00;99.90;;;;;;5034433;28;20068;-75
2022/01/27 02:04:09;;;;;;;80.53;39.00;;;3.00;99.90;;;;;;5016266;28;20044;-75
2022/01/27 02:06:45;;;;;;;79.97;38.57;;;2.90;99.90;;;;;;5016407;28;20025;-75
2022/01/27 02:19:59;;;;;;;84.37;38.93;;;2.80;99.90;;;;;;5034105;28;20172;-75
2022/01/27 02:22:25;;;;;;;84.23;40.50;;;2.90;99.90;;;;;;5033824;28;20606;-75
2022/01/27 02:24:52;;;;;;;86.50;39.60;;;2.80;99.90;;;;;;5016024;28;20022;-75
2022/01/27 02:27:18;;;;;;;88.03;40.03;;;2.80;99.90;;;;;;5015939;28;20041;-75
2022/01/27 02:29:47;;;;;;;87.93;40.60;;;2.80;99.90;;;;;;5033852;28;20033;-75
2022/01/27 02:32:16;;;;;;;85.50;39.40;;;2.80;99.90;;;;;;5033574;28;20040;-75
2022/01/27 02:34:42;;;;;;;82.10;40.30;;;2.80;99.90;;;;;;5033464;28;20026;-75
2022/01/27 02:37:09;;;;;;;80.57;38.50;;;2.80;99.90;;;;;;5033632;28;20116;-75
2022/01/27 02:39:35;;;;;;;80.90;38.17;;;2.90;99.90;;;;;;5033472;28;20075;-75
2022/01/27 02:42:09;;;;;;;75.63;37.07;;;2.90;99.90;;;;;;5015879;28;20036;-75
2022/01/27 02:44:53;;;;;;;75.10;37.23;;;2.90;99.90;;;;;;5033838;28;20021;-75
2022/01/27 02:47:21;;;;;;;78.97;35.57;;;2.80;99.90;;;;;;5015582;28;20048;-75
2022/01/27 02:49:47;;;;;;;81.73;36.47;;;2.90;99.90;;;;;;5033046;28;20103;-75
2022/01/27 02:52:14;;;;;;;75.10;36.67;;;2.90;99.90;;;;;;5015912;28;20064;-75
2022/01/27 02:54:40;;;;;;;79.13;36.23;;;2.80;99.90;;;;;;5033289;28;20025;-75
2022/01/27 02:57:07;;;;;;;87.63;38.03;;;2.80;99.90;;;;;;5033106;28;20048;-75
2022/01/27 02:59:33;;;;;;;88.10;40.57;;;2.70;99.90;;;;;;5015419;28;20387;-75
2022/01/27 03:01:59;;;;;;;81.70;39.60;;;2.70;99.90;;;;;;5015230;28;20040;-75
2022/01/27 03:04:26;;;;;;;82.33;37.93;;;2.70;99.90;;;;;;5015190;28;20368;-75
2022/01/27 03:06:52;;;;;;;80.57;37.43;;;2.70;99.90;;;;;;5015058;28;20390;-75
2022/01/27 03:09:18;;;;;;;77.67;37.40;;;2.70;99.90;;;;;;5032928;28;20541;-75
2022/01/27 03:11:45;;;;;;;80.37;38.57;;;2.70;99.90;;;;;;5015157;28;20087;-75
2022/01/27 03:14:12;;;;;;;84.67;39.30;;;2.70;99.90;;;;;;5015153;28;20087;-75
2022/01/27 03:16:38;;;;;;;79.60;38.83;;;2.70;99.90;;;;;;5154934;22;20084;-79
2022/01/27 03:19:04;;;;;;;81.17;38.73;;;2.70;99.90;;;;;;5034115;28;20021;-79
2022/01/27 03:21:30;;;;;;;78.63;39.23;;;2.50;99.90;;;;;;5034705;28;20029;-78
2022/01/27 03:23:55;;;;;;;84.73;40.37;;;2.50;99.90;;;;;;5034708;28;20162;-79
2022/01/27 03:26:22;;;;;;;84.00;41.17;;;2.50;99.90;;;;;;5034289;28;20021;-79
2022/01/27 03:28:48;;;;;;;81.63;38.27;;;2.50;99.90;;;;;;5034562;28;20031;-79
2022/01/27 03:31:14;;;;;;;86.80;38.53;;;2.50;99.90;;;;;;5052486;28;20017;-79
2022/01/27 03:33:41;;;;;;;76.67;36.53;;;2.50;99.90;;;;;;5051064;28;20029;-78
2022/01/27 03:36:07;;;;;;;74.60;36.07;;;2.50;99.90;;;;;;5052287;28;20486;-78
2022/01/27 03:38:32;;;;;;;73.17;35.27;;;2.60;99.90;;;;;;5052349;28;20028;-78
2022/01/27 03:40:59;;;;;;;67.43;32.27;;;2.60;99.90;;;;;;5033925;28;20429;-79
2022/01/27 03:43:28;;;;;;;73.23;34.03;;;2.60;99.90;;;;;;5051794;28;20009;-79
2022/01/27 03:45:54;;;;;;;63.53;32.33;;;2.60;99.90;;;;;;5052197;28;20485;-79
2022/01/27 03:48:19;;;;;;;62.83;31.57;;;2.70;99.90;;;;;;5052283;28;20036;-79
2022/01/27 03:50:45;;;;;;;61.43;31.13;;;2.70;99.90;;;;;;5034262;28;20028;-79
2022/01/27 03:53:11;;;;;;;65.47;30.80;;;2.70;99.90;;;;;;5052097;28;20029;-79
2022/01/27 03:55:37;;;;;;;66.33;29.87;;;2.70;99.90;;;;;;5051768;28;20040;-79
2022/01/27 03:58:02;;;;;;;61.93;31.40;;;2.70;99.90;;;;;;5033939;28;20140;-79
2022/01/27 04:00:28;;;;;;;65.23;30.80;;;2.60;99.90;;;;;;5052027;28;20025;-78
2022/01/27 04:03:01;;;;;;;62.53;30.70;;;2.50;99.90;;;;;;5034030;28;20021;-78
2022/01/27 04:05:33;;;;;;;63.40;30.60;;;2.50;99.90;;;;;;5033811;28;20033;-78
2022/01/27 04:07:59;;;;;;;;;;;2.50;99.90;;;;;;5052234;28;20025;-79
2022/01/27 04:10:26;;;;;;;73.43;33.77;;;2.50;99.90;;;;;;5051558;28;19905;-78
2022/01/27 04:12:51;;;;;;;66.77;34.37;;;2.50;99.90;;;;;;5051696;28;20031;-78
2022/01/27 04:15:17;;;;;;;71.60;34.57;;;2.50;99.90;;;;;;5033640;28;20398;-78
2022/01/27 04:17:43;;;;;;;74.03;36.40;;;2.50;99.90;;;;;;5071484;28;20185;-78
2022/01/27 04:20:09;;;;;;;60.53;30.17;;;2.40;99.90;;;;;;5071565;28;20060;-78
2022/01/27 04:22:34;;;;;;;66.63;31.70;;;2.50;99.90;;;;;;5071705;28;20032;-78
2022/01/27 04:25:00;;;;;;;59.70;28.40;;;2.50;99.90;;;;;;5071535;28;20036;-78
2022/01/27 04:27:31;;;;;;;60.07;29.70;;;2.50;99.90;;;;;;5053652;28;20024;-78
2022/01/27 04:29:57;;;;;;;59.90;29.33;;;2.50;99.90;;;;;;5071575;28;20031;-78
2022/01/27 04:32:28;;;;;;;63.53;30.03;;;2.40;99.90;;;;;;5053482;28;20444;-78
2022/01/27 04:35:00;;;;;;;64.38;30.38;;;2.30;99.90;;;;;;5071358;28;20176;-78
2022/01/27 04:37:27;;;;;;;62.33;29.52;;;2.30;99.90;;;;;;5071424;28;20474;-78
2022/01/27 04:40:03;;;;;;;61.03;29.80;;;2.30;99.90;;;;;;5071455;28;20082;-78
2022/01/27 04:42:45;;;;;;;56.67;28.60;;;2.30;99.90;;;;;;5071377;28;20021;-78
2022/01/27 04:45:13;;;;;;;57.00;26.23;;;2.40;99.90;;;;;;5071328;28;20028;-78
2022/01/27 04:47:44;;;;;;;61.67;28.30;;;2.30;99.90;;;;;;5053356;28;20040;-78
2022/01/27 04:50:10;;;;;;;58.90;27.57;;;2.40;99.90;;;;;;5053485;28;20441;-78
2022/01/27 04:52:40;;;;;;;55.77;27.37;;;2.30;99.90;;;;;;5054004;28;20048;-78
2022/01/27 04:55:10;;;;;;;54.83;28.07;;;2.40;99.90;;;;;;5057256;28;20477;-78
2022/01/27 04:57:38;;;;;;;54.43;27.93;;;2.40;99.90;;;;;;5067491;28;20100;-79
2022/01/27 05:00:05;;;;;;;58.37;28.33;;;2.40;99.90;;;;;;5057262;28;20042;-78
2022/01/27 05:02:57;;;;;;;58.73;29.37;;;2.30;99.90;;;;;;5075257;28;20025;-78
2022/01/27 05:05:17;;;;;;;61.80;30.37;;;2.30;99.90;;;;;;5074531;28;20111;-79
2022/01/27 05:07:43;;;;;;;56.37;29.17;;;2.40;99.90;;;;;;5075278;28;20452;-78
2022/01/27 05:10:14;;;;;;;57.90;28.23;;;2.40;99.90;;;;;;5075184;28;20036;-78
2022/01/27 05:15:06;;;;;;;60.63;30.07;;;2.40;99.90;;;;;;5074966;28;20040;-78
2022/01/27 05:17:32;;;;;;;60.17;30.53;;;2.20;99.90;;;;;;5074785;28;20040;-78
2022/01/27 05:19:58;;;;;;;59.90;29.43;;;2.20;99.90;;;;;;5074921;28;20496;-78
2022/01/27 05:22:24;;;;;;;57.10;28.13;;;2.20;99.90;;;;;;5056950;28;20040;-78
2022/01/27 05:24:53;;;;;;;57.50;28.73;;;2.10;99.90;;;;;;5056749;28;20727;-78
2022/01/27 05:27:18;;;;;;;54.83;28.20;;;2.10;99.90;;;;;;5074695;28;20565;-79
2022/01/27 05:29:44;;;;;;;57.30;28.53;;;2.20;99.90;;;;;;5074803;28;20055;-78
2022/01/27 05:32:10;;;;;;;58.13;28.77;;;2.10;99.90;;;;;;5074795;28;20086;-78
2022/01/27 05:34:36;;;;;;;56.10;26.60;;;2.10;99.90;;;;;;5074514;28;20078;-78
2022/01/27 05:37:01;;;;;;;53.97;26.27;;;2.10;99.90;;;;;;5054996;28;20028;-78
2022/01/27 05:39:27;;;;;;;59.97;29.03;;;2.20;99.90;;;;;;5056634;28;20048;-78
2022/01/27 05:41:53;;;;;;;60.87;28.97;;;2.20;99.90;;;;;;5036611;28;20108;-78
2022/01/27 05:44:20;;;;;;;56.80;27.70;;;2.30;99.90;;;;;;5036709;28;20478;-78
2022/01/27 05:46:45;;;;;;;60.00;29.50;;;2.30;99.90;;;;;;5054361;28;20025;-78
2022/01/27 05:49:11;;;;;;;54.03;27.87;;;2.20;99.90;;;;;;5054394;28;20122;-78
2022/01/27 05:51:37;;;;;;;59.83;28.63;;;2.20;99.90;;;;;;5036689;28;20394;-78
2022/01/27 05:54:02;;;;;;;55.93;28.53;;;2.20;99.90;;;;;;5036217;28;20482;-79
2022/01/27 05:56:28;;;;;;;62.97;29.60;;;2.20;99.90;;;;;;5053949;28;20033;-78
2022/01/27 05:58:54;;;;;;;62.70;30.37;;;2.20;99.90;;;;;;5054187;28;20482;-78
2022/01/27 06:01:20;;;;;;;55.90;27.33;;;2.30;99.90;;;;;;5054162;28;20100;-79
2022/01/27 06:03:45;;;;;;;59.90;28.43;;;2.30;99.90;;;;;;5038332;28;20024;-79
2022/01/27 06:06:11;;;;;;;54.27;27.07;;;2.30;99.90;;;;;;5063445;28;20028;-78
2022/01/27 06:08:37;;;;;;;55.97;28.43;;;2.40;99.90;;;;;;5053175;28;20109;-78
2022/01/27 06:11:06;;;;;;;52.03;26.27;;;2.40;99.90;;;;;;5064104;28;20071;-78
2022/01/27 06:13:31;;;;;;;55.03;26.60;;;2.40;99.90;;;;;;5054166;28;20418;-78
2022/01/27 06:15:57;;;;;;;47.47;24.17;;;2.40;99.90;;;;;;5048318;28;20080;-78
2022/01/27 06:18:23;;;;;;;50.33;24.03;;;2.40;99.90;;;;;;5052225;28;20108;-78
2022/01/27 06:20:49;;;;;;;50.60;25.63;;;2.40;99.90;;;;;;5036039;28;20112;-78
2022/01/27 06:23:15;;;;;;;51.97;25.07;;;2.30;99.90;;;;;;5035982;28;20033;-79
2022/01/27 06:25:41;;;;;;;51.80;25.90;;;2.20;99.90;;;;;;5035904;28;20040;-78
2022/01/27 06:28:07;;;;;;;51.20;24.33;;;2.10;99.90;;;;;;5035413;28;20120;-78
2022/01/27 06:30:34;;;;;;;54.03;27.23;;;2.00;99.90;;;;;;5051840;28;20109;-78
2022/01/27 06:33:05;;;;;;;52.50;27.43;;;2.00;99.90;;;;;;5033678;28;20039;-79
2022/01/27 06:35:31;;;;;;;56.37;27.87;;;2.00;99.90;;;;;;5051419;28;20025;-78
2022/01/27 06:37:57;;;;;;;56.73;27.80;;;2.10;99.90;;;;;;5050332;28;20021;-79
2022/01/27 06:40:23;;;;;;;60.07;28.93;;;2.10;99.90;;;;;;5051458;28;20104;-79
2022/01/27 06:42:49;;;;;;;59.97;29.07;;;2.10;99.90;;;;;;5051603;28;20479;-79
2022/01/27 06:45:14;;;;;;;53.00;26.63;;;2.20;99.90;;;;;;5052892;28;20017;-79
2022/01/27 06:47:40;;;;;;;61.07;28.70;;;2.10;99.90;;;;;;5053308;28;20386;-79
2022/01/27 06:50:07;;;;;;;55.40;27.47;;;2.00;99.90;;;;;;5053123;28;20086;-79
2022/01/27 06:52:33;;;;;;;69.30;32.60;;;2.00;99.90;;;;;;5053253;28;20029;-79
2022/01/27 06:55:01;;;;;;;65.90;30.50;;;2.10;99.90;;;;;;5035163;28;20032;-79
2022/01/27 06:57:27;;;;;;;56.47;29.83;;;2.10;99.90;;;;;;5051835;28;20066;-78
2022/01/27 06:59:52;;;;;;;60.70;29.30;;;2.10;99.90;;;;;;5053225;28;20021;-79
2022/01/27 07:02:18;;;;;;;57.57;29.43;;;2.20;99.90;;;;;;5053125;28;20025;-79
2022/01/27 07:04:44;;;;;;;64.80;30.83;;;2.20;99.90;;;;;;5052950;28;20025;-78
2022/01/27 07:07:10;;;;;;;61.63;28.87;;;2.30;99.90;;;;;;5051515;28;20029;-78
2022/01/27 07:09:36;;;;;;;62.23;31.30;;;2.30;99.90;;;;;;5052692;28;20044;-79
2022/01/27 07:12:02;;;;;;;68.83;32.67;;;2.40;99.90;;;;;;5053857;28;20078;-79
2022/01/27 07:14:33;;;;;;;70.37;34.40;;;2.40;99.90;;;;;;5054034;28;20398;-78
2022/01/27 07:16:59;;;;;;;71.07;34.83;;;2.50;99.90;;;;;;5035293;28;20128;-79
2022/01/27 07:19:25;;;;;;;70.90;33.63;;;2.50;99.90;;;;;;5054104;28;20017;-79
2022/01/27 07:21:51;;;;;;;72.47;33.57;;;2.60;99.90;;;;;;5053809;28;20496;-79
2022/01/27 07:24:16;;;;;;;74.60;36.23;;;2.60;99.90;;;;;;5053886;28;20029;-79
2022/01/27 07:26:42;;;;;;;74.67;36.30;;;2.50;99.90;;;;;;5053853;28;20107;-79
2022/01/27 07:29:08;;;;;;;77.30;37.10;;;2.50;99.90;;;;;;5035876;28;20025;-78
2022/01/27 07:31:34;;;;;;;75.63;35.97;;;2.60;99.90;;;;;;5035904;28;20070;-78
2022/01/27 07:33:59;;;;;;;73.13;33.40;;;2.60;99.90;;;;;;5052488;28;20616;-78
2022/01/27 07:36:25;;;;;;;67.10;33.93;;;2.70;99.90;;;;;;5035697;28;20025;-79
2022/01/27 07:38:51;;;;;;;81.17;36.27;;;2.70;99.90;;;;;;5053685;28;20025;-79
2022/01/27 07:41:18;;;;;;;80.50;35.77;;;2.70;99.90;;;;;;5053444;28;20017;-75
2022/01/27 07:43:45;;;;;;;80.97;38.47;;;2.80;99.90;;;;;;5053224;28;20013;-75
2022/01/27 07:46:11;;;;;;;87.67;40.10;;;2.80;99.90;;;;;;5032385;28;20032;-75
2022/01/27 07:48:38;;;;;;;87.73;40.20;;;2.90;99.90;;;;;;5053491;28;20075;-75
2022/01/27 07:51:06;;;;;;;90.63;40.53;;;2.90;99.90;;;;;;5053380;28;20450;-76
2022/01/27 07:53:32;;;;;;;92.97;41.33;;;2.90;99.90;;;;;;5053448;28;20028;-76
2022/01/27 07:55:57;;;;;;;95.60;43.60;;;2.90;99.90;;;;;;5053314;28;20032;-75
2022/01/27 07:58:23;;;;;;;99.10;43.73;;;3.00;99.90;;;;;;5050738;28;20022;-75
2022/01/27 08:00:49;;;;;;;100.00;41.27;;;3.00;99.90;;;;;;5053508;28;20036;-75
2022/01/27 08:03:15;;;;;;;96.70;45.40;;;3.00;99.90;;;;;;5052909;28;20032;-75
2022/01/27 08:05:40;;;;;;;93.13;43.53;;;3.00;99.90;;;;;;5052411;28;20393;-78
2022/01/27 08:08:06;;;;;;;95.63;43.90;;;3.10;99.90;;;;;;5052866;28;20024;-78
2022/01/27 08:10:38;;;;;;;85.40;39.40;;;3.10;99.90;;;;;;5034843;28;20021;-78
2022/01/27 08:13:05;;;;;;;89.93;40.05;;;3.10;99.90;;;;;;5052469;28;20025;-78
2022/01/27 08:15:31;;;;;;;95.53;40.70;;;3.10;99.90;;;;;;5035917;28;20036;-79
2022/01/27 08:17:58;;;;;;;90.90;41.83;;;3.10;99.90;;;;;;5072976;28;20058;-78
2022/01/27 08:20:23;;;;;;;92.00;42.57;;;3.10;99.90;;;;;;5073040;28;20063;-78
2022/01/27 08:22:52;;;;;;;98.23;45.07;;;3.10;99.90;;;;;;5072958;28;20060;-79
2022/01/27 08:25:19;;;;;;;98.50;44.07;;;3.10;99.90;;;;;;5069389;28;20025;-79
2022/01/27 08:27:47;;;;;;;94.33;42.27;;;3.20;99.90;;;;;;5072918;28;20025;-79
2022/01/27 08:30:16;;;;;;;97.93;42.90;;;3.20;99.90;;;;;;5072954;28;20478;-78
2022/01/27 08:35:16;;;;;;;113.30;47.47;;;3.30;99.90;;;;;;5072305;28;20105;-78
2022/01/27 08:37:42;;;;;;;123.45;49.85;;;3.40;99.90;;;;;;5072627;28;20029;-79
2022/01/27 08:40:10;;;;;;;126.37;52.67;;;3.40;99.90;;;;;;5072530;28;20238;-78
2022/01/27 08:42:40;;;;;;;129.40;49.40;;;3.40;99.90;;;;;;5071976;28;20450;-79
2022/01/27 08:45:11;;;;;;;133.23;53.30;;;3.40;99.90;;;;;;5071387;28;20024;-78
2022/01/27 08:47:37;;;;;;;140.63;54.10;;;3.40;99.90;;;;;;5071436;28;20063;-78
2022/01/27 08:50:05;;;;;;;142.70;55.40;;;3.50;99.90;;;;;;5071324;28;20454;-78
2022/01/27 08:52:31;;;;;;;151.03;54.07;;;3.50;99.90;;;;;;5071519;28;20382;-78
2022/01/27 08:54:57;;;;;;;142.87;54.93;;;3.50;99.90;;;;;;5071310;28;20021;-78
2022/01/27 08:57:23;;;;;;;138.93;54.50;;;3.50;99.90;;;;;;5069844;28;20493;-78
2022/01/27 08:59:51;;;;;;;153.30;58.00;;;3.50;99.90;;;;;;5071225;28;20107;-78
2022/01/27 09:02:17;;;;;;;147.27;57.13;;;3.60;99.90;;;;;;5071239;28;20021;-79
2022/01/27 09:04:42;;;;;;;149.07;57.37;;;3.60;99.90;;;;;;5071060;28;20082;-78
2022/01/27 09:07:08;;;;;;;123.73;54.03;;;3.60;99.90;;;;;;5071252;28;20474;-78
2022/01/27 09:09:34;;;;;;;120.23;51.63;;;3.50;99.90;;;;;;5071242;28;20040;-78
2022/01/27 09:12:02;;;;;;;136.30;54.30;;;3.50;99.90;;;;;;5071337;28;20033;-78
2022/01/27 09:14:30;;;;;;;139.40;54.80;;;3.60;99.90;;;;;;5071052;28;20029;-78
2022/01/27 09:16:59;;;;;;;132.40;53.93;;;3.60;99.90;;;;;;5064389;28;20045;-78
2022/01/27 09:19:26;;;;;;;136.07;51.90;;;3.70;99.90;;;;;;5069659;28;20276;-78
2022/01/27 09:21:54;;;;;;;131.80;54.33;;;3.70;99.90;;;;;;5071056;28;20047;-78
2022/01/27 09:24:27;;;;;;;127.50;53.07;;;3.80;99.90;;;;;;5071004;28;20025;-79
2022/01/27 09:27:00;;;;;;;118.47;49.53;;;3.80;99.90;;;;;;5070897;28;20482;-78
2022/01/27 09:29:29;;;;;;;126.90;51.17;;;3.80;99.90;;;;;;5069799;28;20025;-78
2022/01/27 09:31:56;;;;;;;131.57;53.53;;;3.90;99.90;;;;;;5064330;28;20024;-78
2022/01/27 09:34:23;;;;;;;133.93;52.80;;;3.90;99.90;;;;;;5069536;28;20115;-78
2022/01/27 09:36:51;;;;;;;124.23;52.57;;;3.90;99.90;;;;;;5063234;28;20115;-78
2022/01/27 09:39:19;;;;;;;126.70;52.73;;;3.90;99.90;;;;;;5071307;28;20111;-78
2022/01/27 09:41:45;;;;;;;123.67;49.97;;;4.00;99.90;;;;;;5066550;28;20027;-78
2022/01/27 09:44:13;;;;;;;133.13;52.33;;;4.00;99.90;;;;;;5073937;28;20024;-78
2022/01/27 09:46:44;;;;;;;124.60;51.70;;;4.00;99.90;;;;;;5065703;28;20448;-78
2022/01/27 09:49:17;;;;;;;122.47;53.70;;;3.90;99.90;;;;;;5073055;28;20031;-79
2022/01/27 09:51:45;;;;;;;138.67;53.43;;;3.90;99.90;;;;;;5074330;28;20025;-78
2022/01/27 09:54:13;;;;;;;136.87;55.17;;;3.90;99.90;;;;;;5072841;28;20029;-78
2022/01/27 09:56:40;;;;;;;138.93;53.47;;;4.00;99.90;;;;;;5065414;28;20021;-79
2022/01/27 09:59:08;;;;;;;131.47;52.03;;;4.00;99.90;;;;;;5074271;28;20478;-78
2022/01/27 10:01:35;;;;;;;136.48;52.67;;;4.10;99.90;;;;;;5056345;28;20028;-78
2022/01/27 10:04:05;;;;;;;127.50;52.70;;;4.20;99.90;;;;;;5074042;28;20029;-78
2022/01/27 10:06:33;;;;;;;122.50;50.67;;;4.20;99.90;;;;;;5072541;28;20032;-78
2022/01/27 10:09:14;;;;;;;120.57;50.03;;;4.30;99.90;;;;;;5073834;28;20440;-78
2022/01/27 10:11:41;;;;;;;130.63;53.47;;;4.30;99.90;;;;;;5074086;28;20024;-78
2022/01/27 10:14:21;;;;;;;133.00;54.55;;;4.40;99.90;;;;;;5068788;28;20028;-78
2022/01/27 10:16:49;;;;;;;132.93;54.38;;;4.40;99.90;;;;;;5073632;28;20044;-78
2022/01/27 10:19:15;;;;;;;140.93;57.30;;;4.50;99.90;;;;;;5073865;28;20017;-78
2022/01/27 10:21:41;;;;;;;143.93;56.75;;;4.50;99.90;;;;;;5055716;28;20021;-78
2022/01/27 10:24:16;;;;;;;151.98;60.05;;;4.50;99.90;;;;;;5073713;28;20386;-78
2022/01/27 10:26:46;;;;;;;145.30;57.63;;;4.50;99.90;;;;;;5056091;28;20029;-78
2022/01/27 10:29:16;;;;;;;137.30;57.83;;;4.50;99.90;;;;;;5056997;28;20119;-79
2022/01/27 10:31:42;;;;;;;148.80;58.30;;;4.60;99.90;;;;;;5075019;28;20048;-78
2022/01/27 10:34:10;;;;;;;135.68;57.08;;;4.60;99.90;;;;;;5056944;28;20021;-79
2022/01/27 10:36:44;;;;;;;148.40;57.63;;;4.60;99.90;;;;;;5074761;28;20027;-79
2022/01/27 10:39:12;;;;;;;148.00;56.85;;;4.70;99.90;;;;;;5056806;28;20038;-79
2022/01/27 10:41:54;;;;;;;141.80;57.22;;;4.80;99.90;;;;;;5056680;28;20023;-79
2022/01/27 10:44:20;;;;;;;142.75;57.13;;;4.90;99.90;;;;;;5056639;28;20528;-79
2022/01/27 10:47:05;;;;;;;131.70;54.20;;;4.90;99.90;;;;;;5074816;28;20165;-79
2022/01/27 10:49:34;;;;;;;145.02;56.75;;;5.00;99.90;;;;;;5074214;28;20583;-79
2022/01/27 10:52:00;;;;;;;134.70;58.28;;;5.00;99.90;;;;;;5073967;28;20052;-78
2022/01/27 10:54:39;;;;;;;128.90;53.60;;;5.00;99.90;;;;;;5074209;28;20543;-78
2022/01/27 10:57:11;;;;;;;126.45;52.55;;;5.10;99.90;;;;;;5052165;28;20035;-78
2022/01/27 10:59:37;;;;;;;;;;;5.20;99.90;;;;;;5044923;28;20017;-79
2022/01/27 11:02:12;;;;;;;130.30;51.25;;;5.20;99.90;;;;;;5033764;28;19911;-79
2022/01/27 11:04:42;;;;;;;133.73;54.58;;;5.30;99.90;;;;;;5025810;28;20025;-78
2022/01/27 11:07:12;;;;;;;126.18;51.40;;;5.30;99.90;;;;;;5034043;28;20032;-79
2022/01/27 11:09:44;;;;;;;125.70;51.50;;;5.30;99.90;;;;;;5034150;28;20029;-79
2022/01/27 11:12:14;;;;;;;117.65;49.42;;;5.40;99.90;;;;;;5051553;28;20497;-79
2022/01/27 11:14:41;;;;;;;122.72;48.03;;;5.40;99.90;;;;;;5033627;28;20546;-79
2022/01/27 11:17:10;;;;;;;121.25;46.58;;;5.40;99.90;;;;;;5053028;28;20043;-78
2022/01/27 11:19:59;;;;;;;126.30;48.00;;;5.40;99.90;;;;;;5053473;28;20025;-79
2022/01/27 11:22:45;;;;;;;124.30;47.08;;;5.50;99.90;;;;;;5054318;28;20386;-79
2022/01/27 11:27:45;;;;;;;109.32;46.17;;;5.60;99.90;;;;;;5073505;28;20028;-76
2022/01/27 11:30:43;;;;;;;115.90;48.05;;;5.60;99.90;;;;;;5055720;28;20044;-76
2022/01/27 11:33:13;;;;;;;119.88;44.90;;;5.70;99.90;;;;;;5055823;28;20035;-77
2022/01/27 11:35:40;;;;;;;115.15;45.38;;;5.70;99.90;;;;;;5055569;28;20036;-76
2022/01/27 11:38:08;;;;;;;111.53;44.17;;;5.80;99.90;;;;;;5073650;28;20016;-77
2022/01/27 11:40:47;;;;;;;118.45;48.20;;;5.90;99.90;;;;;;5047394;28;20485;-77
2022/01/27 11:43:33;;;;;;;119.07;45.17;;;5.90;99.90;;;;;;5073739;28;20470;-76
2022/01/27 11:46:15;;;;;;;96.70;41.65;;;5.90;99.90;;;;;;5073416;28;20028;-76
2022/01/27 11:48:44;;;;;;;112.10;45.38;;;6.00;99.90;;;;;;5073396;28;20082;-77
2022/01/27 11:51:13;;;;;;;110.03;44.00;;;6.10;99.90;;;;;;5072897;28;20436;-79
2022/01/27 11:53:44;;;;;;;111.90;44.42;;;6.10;99.90;;;;;;5053405;28;20017;-78
2022/01/27 11:56:27;;;;;;;109.45;42.35;;;6.20;99.90;;;;;;5070529;28;20032;-79
2022/01/27 11:58:59;;;;;;;104.85;42.90;;;6.20;99.90;;;;;;5053455;28;20024;-79
2022/01/27 12:01:29;;;;;;;103.18;43.42;;;6.30;99.90;;;;;;5070972;28;20482;-79
2022/01/27 12:04:05;;;;;;;108.03;44.17;;;6.20;99.90;;;;;;5053235;28;20070;-79
2022/01/27 12:06:32;;;;;;;113.03;44.28;;;6.30;99.90;;;;;;5071255;28;20020;-79
2022/01/27 12:09:19;;;;;;;110.32;42.85;;;6.30;99.90;;;;;;5071867;28;20032;-78
2022/01/27 12:12:03;;;;;;;106.05;43.53;;;6.30;99.90;;;;;;5053652;28;20124;-78
2022/01/27 12:14:31;;;;;;;103.55;41.53;;;6.40;99.90;;;;;;5071352;28;20029;-79
2022/01/27 12:17:08;;;;;;;104.55;42.53;;;6.50;99.90;;;;;;5056810;28;20054;-78
2022/01/27 12:19:48;;;;;;;109.47;42.47;;;6.50;99.90;;;;;;5071772;28;20024;-79
2022/01/27 12:22:16;;;;;;;114.10;43.55;;;6.50;99.90;;;;;;5071615;28;20428;-79
2022/01/27 12:25:02;;;;;;;108.85;42.80;;;6.50;99.90;;;;;;5071576;28;20020;-78
2022/01/27 12:27:30;;;;;;;114.05;45.35;;;6.60;99.90;;;;;;5070334;28;20443;-78
2022/01/27 12:29:57;;;;;;;112.70;44.30;;;6.60;99.90;;;;;;5071587;28;20474;-78
2022/01/27 12:32:30;;;;;;;107.00;41.80;;;6.70;99.90;;;;;;5071504;28;20036;-79
2022/01/27 12:35:04;;;;;;;118.07;46.28;;;6.70;99.90;;;;;;5071557;28;20086;-79
2022/01/27 12:37:36;;;;;;;107.82;43.85;;;6.70;99.90;;;;;;5070115;28;20028;-78
2022/01/27 12:40:08;;;;;;;111.25;44.75;;;6.70;99.90;;;;;;5071480;28;20074;-78
2022/01/27 12:42:36;;;;;;;;;;;6.70;99.90;;;;;;5072025;28;20021;-78
2022/01/27 12:45:06;;;;;;;107.53;43.88;;;6.70;99.90;;;;;;5071596;28;19932;-78
2022/01/27 12:47:33;;;;;;;98.32;41.92;;;6.60;99.90;;;;;;5071491;28;20029;-78
2022/01/27 12:50:13;;;;;;;107.45;42.38;;;6.70;99.90;;;;;;5071609;28;20025;-78
2022/01/27 12:52:42;;;;;;;103.18;42.33;;;6.70;99.90;;;;;;5071581;28;20035;-78
2022/01/27 12:55:17;;;;;;;109.35;40.75;;;6.70;99.90;;;;;;5071379;28;20028;-78
2022/01/27 12:58:05;;;;;;;106.25;42.22;;;6.70;99.90;;;;;;5071182;28;20046;-78
2022/01/27 13:00:43;;;;;;;100.50;39.05;;;6.70;99.90;;;;;;5071403;28;20051;-78
2022/01/27 13:03:09;;;;;;;100.05;41.13;;;6.70;99.90;;;;;;5071218;28;20031;-78
2022/01/27 13:05:36;;;;;;;103.32;41.30;;;6.80;99.90;;;;;;5070928;28;20028;-78
2022/01/27 13:08:15;;;;;;;104.45;40.95;;;6.80;99.90;;;;;;5071221;28;20029;-78
2022/01/27 13:10:55;;;;;;;100.30;41.50;;;6.70;99.90;;;;;;5069773;28;20021;-78
2022/01/27 13:13:25;;;;;;;99.93;40.25;;;6.70;99.90;;;;;;5070263;28;20051;-78
2022/01/27 13:16:04;;;;;;;98.35;41.08;;;6.70;99.90;;;;;;5074674;28;20052;-78
2022/01/27 13:18:39;;;;;;;104.57;40.45;;;6.70;99.90;;;;;;5074993;28;20036;-78
2022/01/27 13:21:16;;;;;;;101.32;40.80;;;6.70;99.90;;;;;;5056959;28;20021;-78
2022/01/27 13:23:46;;;;;;;89.63;38.28;;;6.80;99.90;;;;;;5056821;28;20021;-78
2022/01/27 13:26:16;;;;;;;98.10;40.28;;;6.80;99.90;;;;;;5056755;28;20066;-78
2022/01/27 13:28:43;;;;;;;97.63;39.85;;;6.80;99.90;;;;;;5074751;28;20016;-78